Time;durP1;ratioP1;P1;durP2;ratioP2;P2;SDS_P1;SDS_P2;PMS_P1;PMS_P2;Temp;Humidity;BMP_temperature;BMP_pressure;BME280_temperature;BME280_humidity;BME280_pressure;Samples;Min_cycle;Max_cycle;Signal;HPM_P1;HPM_P2
2024/01/18 00:01:34;;;;;;;48.97;33.93;;;-1.40;99.90;;;;;;5092908;28;20254;-62
2024/01/18 00:04:01;;;;;;;49.20;34.50;;;-1.30;99.90;;;;;;5091758;28;20288;-62
2024/01/18 00:06:28;;;;;;;52.47;34.07;;;-1.40;99.90;;;;;;5092467;28;20200;-63
2024/01/18 00:08:54;;;;;;;52.67;32.57;;;-1.40;99.90;;;;;;5091556;28;20708;-62
2024/01/18 00:11:20;;;;;;;46.37;33.63;;;-1.40;99.90;;;;;;5092779;28;20181;-63
2024/01/18 00:13:45;;;;;;;51.63;34.43;;;-1.50;99.90;;;;;;5093165;28;20263;-63
2024/01/18 00:16:11;;;;;;;51.30;36.13;;;-1.50;99.90;;;;;;5096470;28;20173;-62
2024/01/18 00:18:37;;;;;;;49.80;35.07;;;-1.50;99.90;;;;;;5095088;28;20209;-62
2024/01/18 00:21:04;;;;;;;53.10;35.43;;;-1.50;99.90;;;;;;5096428;28;20168;-62
2024/01/18 00:23:30;;;;;;;47.40;34.53;;;-1.50;99.90;;;;;;5096492;28;20252;-62
2024/01/18 00:25:55;;;;;;;53.90;34.00;;;-1.50;99.90;;;;;;5096454;28;20299;-63
2024/01/18 00:28:21;;;;;;;54.37;36.23;;;-1.50;99.90;;;;;;5096354;28;20243;-63
2024/01/18 00:30:47;;;;;;;54.83;34.63;;;-1.50;99.90;;;;;;5096812;28;20320;-63
2024/01/18 00:33:13;;;;;;;51.90;34.47;;;-1.50;99.90;;;;;;5096672;28;20169;-63
2024/01/18 00:35:38;;;;;;;52.90;33.80;;;-1.40;99.90;;;;;;5096434;28;20524;-62
2024/01/18 00:38:04;;;;;;;50.23;34.27;;;-1.50;99.90;;;;;;5096208;28;20211;-62
2024/01/18 00:40:30;;;;;;;48.90;34.47;;;-1.50;99.90;;;;;;5096295;28;20219;-63
2024/01/18 00:42:56;;;;;;;51.63;35.03;;;-1.50;99.90;;;;;;5096289;28;20169;-62
2024/01/18 00:45:21;;;;;;;49.83;34.30;;;-1.50;99.90;;;;;;5096233;28;20234;-63
2024/01/18 00:47:47;;;;;;;49.23;34.60;;;-1.50;99.90;;;;;;5096052;28;20197;-62
2024/01/18 00:50:13;;;;;;;51.40;33.07;;;-1.40;99.90;;;;;;5095728;28;20173;-62
2024/01/18 00:52:39;;;;;;;50.67;34.47;;;-1.40;99.90;;;;;;5096026;28;20158;-63
2024/01/18 00:55:06;;;;;;;47.77;31.20;;;-1.40;99.90;;;;;;5096085;28;20643;-62
2024/01/18 00:57:33;;;;;;;52.27;34.43;;;-1.30;99.90;;;;;;5095821;28;20264;-62
2024/01/18 00:59:59;;;;;;;48.80;34.20;;;-1.30;99.90;;;;;;5095797;28;20287;-61
2024/01/18 01:02:25;;;;;;;48.43;32.50;;;-1.40;99.90;;;;;;5096571;28;20157;-62
2024/01/18 01:04:51;;;;;;;43.00;30.60;;;-1.40;99.90;;;;;;5096001;28;20165;-62
2024/01/18 01:07:17;;;;;;;47.93;31.53;;;-1.30;99.90;;;;;;5095397;28;20260;-62
2024/01/18 01:09:43;;;;;;;51.77;34.00;;;-1.30;99.90;;;;;;5095770;28;20173;-62
2024/01/18 01:12:08;;;;;;;48.07;31.17;;;-1.30;99.90;;;;;;5095625;28;20208;-62
2024/01/18 01:14:34;;;;;;;50.00;32.70;;;-1.40;99.90;;;;;;5095593;28;20169;-62
2024/01/18 01:17:00;;;;;;;52.77;32.77;;;-1.40;99.90;;;;;;5095586;28;20192;-63
2024/01/18 01:19:26;;;;;;;46.93;31.93;;;-1.40;99.90;;;;;;5095911;28;20201;-63
2024/01/18 01:21:51;;;;;;;48.13;33.90;;;-1.50;99.90;;;;;;5094000;28;20248;-62
2024/01/18 01:24:17;;;;;;;57.90;34.50;;;-1.50;99.90;;;;;;5094202;28;20677;-62
2024/01/18 01:26:43;;;;;;;50.97;32.90;;;-1.50;99.90;;;;;;5095286;28;20197;-62
2024/01/18 01:29:10;;;;;;;43.37;30.57;;;-1.50;99.90;;;;;;5095685;28;20204;-63
2024/01/18 01:31:36;;;;;;;46.07;31.57;;;-1.50;99.90;;;;;;5093997;28;20238;-62
2024/01/18 01:34:02;;;;;;;44.73;30.60;;;-1.50;99.90;;;;;;5095611;28;20181;-63
2024/01/18 01:36:27;;;;;;;49.87;32.10;;;-1.40;99.90;;;;;;5094795;28;20669;-62
2024/01/18 01:38:53;;;;;;;44.93;32.13;;;-1.40;99.90;;;;;;5095062;28;20576;-62
2024/01/18 01:41:19;;;;;;;48.90;32.20;;;-1.40;99.90;;;;;;5095163;28;20165;-63
2024/01/18 01:43:58;;;;;;;41.60;30.90;;;-1.50;99.90;;;;;;5095057;28;20161;-63
2024/01/18 01:46:24;;;;;;;46.03;31.67;;;-1.40;99.90;;;;;;5095188;28;20524;-63
2024/01/18 01:48:51;;;;;;;41.83;28.60;;;-1.40;99.90;;;;;;5095340;28;20307;-63
2024/01/18 01:51:18;;;;;;;40.83;31.00;;;-1.40;99.90;;;;;;5094536;28;20196;-62
2024/01/18 01:53:43;;;;;;;41.70;29.40;;;-1.30;99.90;;;;;;5094913;28;20177;-63
2024/01/18 01:56:09;;;;;;;41.50;29.37;;;-1.30;99.90;;;;;;5095409;28;20168;-63
2024/01/18 01:58:36;;;;;;;44.90;30.60;;;-1.30;99.90;;;;;;5094657;28;20254;-62
2024/01/18 02:01:02;;;;;;;46.17;31.03;;;-1.30;99.90;;;;;;5094630;28;20179;-63
2024/01/18 02:03:29;;;;;;;44.47;28.43;;;-1.30;99.90;;;;;;5094921;28;20252;-62
2024/01/18 02:05:55;;;;;;;43.53;31.27;;;-1.30;99.90;;;;;;5094409;28;20173;-62
2024/01/18 02:08:22;;;;;;;41.07;31.23;;;-1.30;99.90;;;;;;5094487;28;20201;-63
2024/01/18 02:10:48;;;;;;;46.43;31.33;;;-1.30;99.90;;;;;;5094851;28;20169;-62
2024/01/18 02:13:15;;;;;;;47.20;30.17;;;-1.30;99.90;;;;;;5094806;28;20234;-62
2024/01/18 02:15:41;;;;;;;46.37;33.13;;;-1.30;99.90;;;;;;5094269;28;20515;-63
2024/01/18 02:18:07;;;;;;;47.60;30.10;;;-1.30;99.90;;;;;;5094253;28;20185;-63
2024/01/18 02:20:33;;;;;;;48.23;31.17;;;-1.30;99.90;;;;;;5094081;28;20196;-63
2024/01/18 02:23:01;;;;;;;41.73;29.67;;;-1.30;99.90;;;;;;5094371;28;20177;-62
2024/01/18 02:25:28;;;;;;;43.70;31.37;;;-1.30;99.90;;;;;;5094254;28;20176;-63
2024/01/18 02:27:57;;;;;;;43.67;30.33;;;-1.30;99.90;;;;;;5092935;28;20230;-63
2024/01/18 02:30:24;;;;;;;46.67;30.20;;;-1.30;99.90;;;;;;5094137;28;20669;-62
2024/01/18 02:32:49;;;;;;;44.73;30.53;;;-1.30;99.90;;;;;;5094367;28;20206;-62
2024/01/18 02:35:16;;;;;;;49.97;32.13;;;-1.30;99.90;;;;;;5094162;28;20257;-62
2024/01/18 02:37:42;;;;;;;48.97;32.20;;;-1.30;99.90;;;;;;5094415;28;20684;-63
2024/01/18 02:40:08;;;;;;;45.90;32.07;;;-1.30;99.90;;;;;;5094345;28;20336;-62
2024/01/18 02:42:34;;;;;;;49.77;33.10;;;-1.30;99.90;;;;;;5094258;28;20523;-63
2024/01/18 02:45:03;;;;;;;43.90;31.13;;;-1.40;99.90;;;;;;5094222;28;20168;-63
2024/01/18 02:47:30;;;;;;;46.47;32.67;;;-1.40;99.90;;;;;;5093699;28;20607;-62
2024/01/18 02:49:56;;;;;;;41.97;31.37;;;-1.50;99.90;;;;;;5093797;28;20173;-62
2024/01/18 02:52:22;;;;;;;45.43;31.13;;;-1.50;99.90;;;;;;5093393;28;20192;-62
2024/01/18 02:54:47;;;;;;;46.03;30.87;;;-1.40;99.90;;;;;;5093757;28;20192;-62
2024/01/18 02:57:13;;;;;;;44.13;30.47;;;-1.40;99.90;;;;;;5093835;28;20201;-62
2024/01/18 02:59:39;;;;;;;45.83;31.47;;;-1.30;99.90;;;;;;5094057;28;20247;-62
2024/01/18 03:02:05;;;;;;;42.50;30.63;;;-1.30;99.90;;;;;;5093721;28;20173;-62
2024/01/18 03:04:31;;;;;;;44.50;32.10;;;-1.30;99.90;;;;;;5094265;28;20565;-62
2024/01/18 03:06:57;;;;;;;46.53;30.97;;;-1.30;99.90;;;;;;5093304;28;20589;-62
2024/01/18 03:09:23;;;;;;;44.63;31.80;;;-1.20;99.90;;;;;;5093750;28;20172;-62
2024/01/18 03:11:49;;;;;;;43.43;31.10;;;-1.20;99.90;;;;;;5093793;28;20169;-62
2024/01/18 03:14:15;;;;;;;41.97;30.03;;;-1.20;99.90;;;;;;5093598;28;20242;-62
2024/01/18 03:16:43;;;;;;;39.20;29.83;;;-1.30;99.90;;;;;;5094002;28;20216;-63
2024/01/18 03:19:12;;;;;;;44.70;31.67;;;-1.20;99.90;;;;;;5093402;28;20197;-62
2024/01/18 03:21:38;;;;;;;43.87;30.70;;;-1.30;99.90;;;;;;5093155;28;20177;-63
2024/01/18 03:24:06;;;;;;;43.20;31.37;;;-1.30;99.90;;;;;;5093978;28;20172;-63
2024/01/18 03:26:32;;;;;;;42.50;30.57;;;-1.30;99.90;;;;;;5093328;28;20223;-62
2024/01/18 03:28:58;;;;;;;46.43;31.20;;;-1.30;99.90;;;;;;5093390;28;20180;-62
2024/01/18 03:31:23;;;;;;;41.23;31.13;;;-1.30;99.90;;;;;;5093300;28;20179;-63
2024/01/18 03:33:49;;;;;;;50.27;31.97;;;-1.30;99.90;;;;;;5093381;28;20208;-63
2024/01/18 03:36:15;;;;;;;46.47;30.07;;;-1.30;99.90;;;;;;5093450;28;20180;-62
2024/01/18 03:38:41;;;;;;;40.93;30.50;;;-1.30;99.90;;;;;;5093325;28;20257;-63
2024/01/18 03:41:06;;;;;;;40.07;30.10;;;-1.30;99.90;;;;;;5093617;28;20173;-62
2024/01/18 03:43:32;;;;;;;40.20;31.07;;;-1.30;99.90;;;;;;5093204;28;20184;-62
2024/01/18 03:45:58;;;;;;;40.80;30.17;;;-1.20;99.90;;;;;;5093293;28;20173;-62
2024/01/18 03:48:23;;;;;;;44.47;29.53;;;-1.20;99.90;;;;;;5093190;28;20192;-62
2024/01/18 03:50:49;;;;;;;47.50;32.40;;;-1.20;99.90;;;;;;5095960;28;20216;-63
2024/01/18 03:53:15;;;;;;;46.23;31.63;;;-1.20;99.90;;;;;;5097292;28;20180;-63
2024/01/18 03:55:41;;;;;;;46.40;32.73;;;-1.20;99.90;;;;;;5097533;28;20172;-62
2024/01/18 03:58:07;;;;;;;48.13;32.53;;;-1.30;99.90;;;;;;5097067;28;20613;-63
2024/01/18 04:00:33;;;;;;;41.77;31.37;;;-1.30;99.90;;;;;;5096984;28;20625;-63
2024/01/18 04:02:59;;;;;;;46.80;32.40;;;-1.30;99.90;;;;;;5097230;28;20223;-62
2024/01/18 04:05:24;;;;;;;50.27;33.57;;;-1.30;99.90;;;;;;5097389;28;20670;-63
2024/01/18 04:07:50;;;;;;;49.07;32.47;;;-1.30;99.90;;;;;;5095416;28;20208;-63
2024/01/18 04:10:16;;;;;;;44.50;32.10;;;-1.30;99.90;;;;;;5097083;28;20252;-62
2024/01/18 04:12:42;;;;;;;39.13;29.97;;;-1.30;99.90;;;;;;5096889;28;20181;-62
2024/01/18 04:15:09;;;;;;;49.70;33.03;;;-1.30;99.90;;;;;;5096835;28;20188;-62
2024/01/18 04:17:35;;;;;;;43.87;32.33;;;-1.30;99.90;;;;;;5095276;28;20246;-62
2024/01/18 04:20:05;;;;;;;48.27;32.97;;;-1.40;99.90;;;;;;5097121;28;20603;-62
2024/01/18 04:22:31;;;;;;;47.33;32.97;;;-1.40;99.90;;;;;;5096177;28;20165;-62
2024/01/18 04:24:57;;;;;;;49.60;32.27;;;-1.40;99.90;;;;;;5096608;28;20179;-62
2024/01/18 04:27:23;;;;;;;42.10;30.93;;;-1.30;99.90;;;;;;5095520;28;20561;-62
2024/01/18 04:29:48;;;;;;;49.70;33.53;;;-1.30;99.90;;;;;;5096362;28;20173;-63
2024/01/18 04:32:14;;;;;;;46.63;32.67;;;-1.30;99.90;;;;;;5096525;28;20650;-63
2024/01/18 04:34:40;;;;;;;43.53;31.27;;;-1.30;99.90;;;;;;5096872;28;20184;-63
2024/01/18 04:37:06;;;;;;;46.20;31.90;;;-1.30;99.90;;;;;;5095997;28;20191;-63
2024/01/18 04:39:31;;;;;;;45.27;31.40;;;-1.30;99.90;;;;;;5096287;28;20197;-62
2024/01/18 04:41:57;;;;;;;46.83;30.83;;;-1.20;99.90;;;;;;5096716;28;20172;-62
2024/01/18 04:44:23;;;;;;;49.77;32.70;;;-1.20;99.90;;;;;;5096176;28;20177;-62
2024/01/18 04:46:49;;;;;;;43.70;33.03;;;-1.30;99.90;;;;;;5096116;28;20268;-62
2024/01/18 04:49:15;;;;;;;43.40;31.67;;;-1.30;99.90;;;;;;5096445;28;20169;-62
2024/01/18 04:51:41;;;;;;;48.70;31.80;;;-1.30;99.90;;;;;;5096082;28;20194;-62
2024/01/18 04:54:07;;;;;;;48.73;32.70;;;-1.30;99.90;;;;;;5096207;28;20565;-63
2024/01/18 04:56:35;;;;;;;43.47;31.63;;;-1.30;99.90;;;;;;5096043;28;20169;-62
2024/01/18 04:59:01;;;;;;;47.03;33.33;;;-1.30;99.90;;;;;;5095858;28;20220;-63
2024/01/18 05:01:27;;;;;;;45.33;32.23;;;-1.30;99.90;;;;;;5094829;28;20173;-62
2024/01/18 05:03:53;;;;;;;45.00;32.73;;;-1.30;99.90;;;;;;5096492;28;20234;-62
2024/01/18 05:06:19;;;;;;;49.40;32.90;;;-1.40;99.90;;;;;;5095654;28;20158;-62
2024/01/18 05:08:46;;;;;;;42.63;31.40;;;-1.40;99.90;;;;;;5096228;28;20219;-63
2024/01/18 05:11:11;;;;;;;49.17;33.70;;;-1.40;99.90;;;;;;5094731;28;20553;-62
2024/01/18 05:13:37;;;;;;;46.50;32.50;;;-1.40;99.90;;;;;;5096021;28;20186;-62
2024/01/18 05:16:04;;;;;;;47.30;34.13;;;-1.50;99.90;;;;;;5095621;28;20203;-63
2024/01/18 05:18:30;;;;;;;48.77;33.83;;;-1.50;99.90;;;;;;5095320;28;20189;-62
2024/01/18 05:20:55;;;;;;;51.00;34.90;;;-1.40;99.90;;;;;;5095166;28;20173;-61
2024/01/18 05:23:21;;;;;;;49.00;33.07;;;-1.40;99.90;;;;;;5095321;28;20226;-63
2024/01/18 05:25:47;;;;;;;50.27;34.70;;;-1.40;99.90;;;;;;5095256;28;20176;-62
2024/01/18 05:28:13;;;;;;;50.77;34.73;;;-1.40;99.90;;;;;;5095186;28;20189;-62
2024/01/18 05:30:38;;;;;;;46.57;32.10;;;-1.40;99.90;;;;;;5095374;28;20551;-62
2024/01/18 05:33:04;;;;;;;45.40;31.20;;;-1.40;99.90;;;;;;5094968;28;20166;-62
2024/01/18 05:35:30;;;;;;;47.77;31.23;;;-1.40;99.90;;;;;;5094942;28;20172;-62
2024/01/18 05:37:56;;;;;;;52.33;31.33;;;-1.30;99.90;;;;;;5094654;28;20185;-62
2024/01/18 05:40:22;;;;;;;51.03;32.70;;;-1.30;99.90;;;;;;5094997;28;20224;-62
2024/01/18 05:42:48;;;;;;;51.70;33.50;;;-1.30;99.90;;;;;;5094237;28;20204;-62
2024/01/18 05:45:14;;;;;;;46.30;33.73;;;-1.30;99.90;;;;;;5094657;28;20193;-62
2024/01/18 05:47:40;;;;;;;54.90;35.30;;;-1.30;99.90;;;;;;5093406;28;20212;-63
2024/01/18 05:50:07;;;;;;;50.00;35.30;;;-1.30;99.90;;;;;;5094615;28;20646;-62
2024/01/18 05:52:33;;;;;;;48.80;34.00;;;-1.40;99.90;;;;;;5094417;28;20241;-62
2024/01/18 05:54:58;;;;;;;49.83;33.37;;;-1.30;99.90;;;;;;5094891;28;20248;-62
2024/01/18 05:57:25;;;;;;;48.90;33.23;;;-1.30;99.90;;;;;;5094524;28;20196;-61
2024/01/18 05:59:51;;;;;;;49.30;33.73;;;-1.30;99.90;;;;;;5094386;28;20197;-62
2024/01/18 06:02:16;;;;;;;50.63;34.37;;;-1.30;99.90;;;;;;5094475;28;20169;-62
2024/01/18 06:04:42;;;;;;;44.07;32.97;;;-1.30;99.90;;;;;;5094489;28;20186;-62
2024/01/18 06:07:08;;;;;;;56.13;34.90;;;-1.30;99.90;;;;;;5094252;28;20196;-63
2024/01/18 06:09:34;;;;;;;54.37;35.30;;;-1.30;99.90;;;;;;5094381;28;20205;-62
2024/01/18 06:11:59;;;;;;;51.20;34.00;;;-1.30;99.90;;;;;;5094385;28;20222;-62
2024/01/18 06:14:25;;;;;;;49.67;34.23;;;-1.40;99.90;;;;;;5094274;28;20191;-62
2024/01/18 06:16:51;;;;;;;49.83;34.93;;;-1.40;99.90;;;;;;5094576;28;20197;-62
2024/01/18 06:19:17;;;;;;;46.37;33.70;;;-1.40;99.90;;;;;;5094321;28;20207;-62
2024/01/18 06:21:42;;;;;;;55.97;35.73;;;-1.40;99.90;;;;;;5094151;28;20248;-62
2024/01/18 06:24:08;;;;;;;52.13;34.30;;;-1.40;99.90;;;;;;5094061;28;20227;-63
2024/01/18 06:26:34;;;;;;;50.37;35.33;;;-1.40;99.90;;;;;;5094181;28;20171;-62
2024/01/18 06:29:00;;;;;;;50.77;34.80;;;-1.40;99.90;;;;;;5093985;28;20188;-62
2024/01/18 06:31:29;;;;;;;49.50;34.23;;;-1.40;99.90;;;;;;5094161;28;20264;-62
2024/01/18 06:33:56;;;;;;;50.90;32.13;;;-1.40;99.90;;;;;;5093867;28;20642;-62
2024/01/18 06:36:24;;;;;;;51.27;35.43;;;-1.30;99.90;;;;;;5092237;28;20177;-63
2024/01/18 06:38:50;;;;;;;55.53;35.70;;;-1.40;99.90;;;;;;5094004;28;20212;-62
2024/01/18 06:41:17;;;;;;;42.77;33.00;;;-1.40;99.90;;;;;;5094330;28;20161;-62
2024/01/18 06:43:43;;;;;;;54.27;34.60;;;-1.40;99.90;;;;;;5093874;28;20583;-62
2024/01/18 06:46:18;;;;;;;55.33;35.47;;;-1.40;99.90;;;;;;5094148;28;20169;-63
2024/01/18 06:48:52;;;;;;;53.47;35.87;;;-1.50;99.90;;;;;;5093908;28;20172;-62
2024/01/18 06:51:21;;;;;;;57.17;34.57;;;-1.50;99.90;;;;;;5093316;28;20260;-63
2024/01/18 06:53:47;;;;;;;55.03;36.57;;;-1.50;99.90;;;;;;5093872;28;20264;-62
2024/01/18 06:56:13;;;;;;;56.63;35.57;;;-1.50;99.90;;;;;;5093802;28;20264;-62
2024/01/18 06:58:40;;;;;;;50.20;33.37;;;-1.50;99.90;;;;;;5093373;28;20230;-62
2024/01/18 07:01:06;;;;;;;53.90;34.83;;;-1.40;99.90;;;;;;5093404;28;20173;-62
2024/01/18 07:03:35;;;;;;;52.90;33.93;;;-1.50;99.90;;;;;;5092194;28;20550;-62
2024/01/18 07:06:02;;;;;;;57.83;36.03;;;-1.50;99.90;;;;;;5093034;28;20230;-62
2024/01/18 07:08:29;;;;;;;50.80;34.33;;;-1.50;99.90;;;;;;5093526;28;20197;-62
2024/01/18 07:10:55;;;;;;;52.17;33.97;;;-1.50;99.90;;;;;;5093389;28;20571;-62
2024/01/18 07:13:21;;;;;;;52.43;35.47;;;-1.50;99.90;;;;;;5093305;28;20166;-62
2024/01/18 07:15:46;;;;;;;52.97;34.77;;;-1.50;99.90;;;;;;5093352;28;20177;-63
2024/01/18 07:18:12;;;;;;;47.57;33.27;;;-1.50;99.90;;;;;;5093150;28;20197;-63
2024/01/18 07:20:39;;;;;;;48.30;32.97;;;-1.50;99.90;;;;;;5093130;28;20284;-62
2024/01/18 07:23:04;;;;;;;42.00;32.73;;;-1.40;99.90;;;;;;5092932;28;20260;-62
2024/01/18 07:25:30;;;;;;;49.13;34.53;;;-1.40;99.90;;;;;;5093084;28;20204;-62
2024/01/18 07:27:56;;;;;;;51.27;36.70;;;-1.40;99.90;;;;;;5093088;28;20215;-62
2024/01/18 07:30:22;;;;;;;56.13;38.37;;;-1.40;99.90;;;;;;5093296;28;20207;-62
2024/01/18 07:32:48;;;;;;;49.23;35.53;;;-1.50;99.90;;;;;;5091815;28;20318;-62
2024/01/18 07:35:15;;;;;;;47.73;35.30;;;-1.60;99.90;;;;;;5093098;28;20623;-62
2024/01/18 07:37:41;;;;;;;50.50;34.13;;;-1.60;99.90;;;;;;5092832;28;20193;-62
2024/01/18 07:40:07;;;;;;;49.80;32.90;;;-1.60;99.90;;;;;;5093254;28;20196;-63
2024/01/18 07:42:33;;;;;;;49.57;33.43;;;-1.70;99.90;;;;;;5093556;28;20173;-62
2024/01/18 07:44:59;;;;;;;50.43;34.90;;;-1.70;99.90;;;;;;5093048;28;20165;-62
2024/01/18 07:47:25;;;;;;;44.57;32.77;;;-1.80;99.90;;;;;;5092900;28;20682;-62
2024/01/18 07:49:51;;;;;;;50.23;33.20;;;-1.80;99.90;;;;;;5093225;28;20231;-62
2024/01/18 07:52:18;;;;;;;44.87;32.10;;;-1.90;99.90;;;;;;5092492;28;20188;-62
2024/01/18 07:54:43;;;;;;;49.83;33.90;;;-1.90;99.90;;;;;;5092933;28;20223;-63
2024/01/18 07:57:09;;;;;;;41.40;30.63;;;-1.90;99.90;;;;;;5092805;28;20666;-62
2024/01/18 07:59:36;;;;;;;42.90;31.93;;;-2.00;99.90;;;;;;5093065;28;20185;-63
2024/01/18 08:02:02;;;;;;;44.97;31.20;;;-2.00;99.90;;;;;;5092725;28;20648;-62
2024/01/18 08:04:29;;;;;;;48.00;32.37;;;-2.10;99.90;;;;;;5092768;28;20227;-62
2024/01/18 08:06:55;;;;;;;42.03;30.77;;;-2.10;99.90;;;;;;5092447;28;20181;-63
2024/01/18 08:09:21;;;;;;;44.40;32.07;;;-2.20;99.90;;;;;;5092790;28;20657;-63
2024/01/18 08:11:47;;;;;;;43.70;31.47;;;-2.20;99.90;;;;;;5093063;28;20208;-63
2024/01/18 08:14:13;;;;;;;42.97;31.00;;;-2.20;99.90;;;;;;5092706;28;20253;-62
2024/01/18 08:16:39;;;;;;;54.10;35.93;;;-2.20;99.90;;;;;;5092623;28;20230;-62
2024/01/18 08:19:05;;;;;;;52.43;34.50;;;-2.30;99.90;;;;;;5092574;28;20205;-62
2024/01/18 08:21:31;;;;;;;48.93;33.53;;;-2.40;99.90;;;;;;5092369;28;20165;-63
2024/01/18 08:23:56;;;;;;;51.13;34.67;;;-2.40;99.90;;;;;;5092710;28;20173;-62
2024/01/18 08:26:22;;;;;;;49.43;32.60;;;-2.40;99.90;;;;;;5092628;28;20222;-63
2024/01/18 08:28:48;;;;;;;48.77;33.23;;;-2.50;99.90;;;;;;5092586;28;20173;-62
2024/01/18 08:31:14;;;;;;;53.93;33.77;;;-2.40;99.90;;;;;;5092531;28;20256;-62
2024/01/18 08:33:40;;;;;;;50.97;33.50;;;-2.50;99.90;;;;;;5092828;28;20173;-62
2024/01/18 08:36:07;;;;;;;47.87;34.27;;;-2.50;99.90;;;;;;5094355;28;20664;-62
2024/01/18 08:38:33;;;;;;;42.37;30.80;;;-2.50;99.90;;;;;;5095757;28;20666;-62
2024/01/18 08:40:59;;;;;;;45.20;33.03;;;-2.50;99.90;;;;;;5096387;28;20228;-63
2024/01/18 08:43:27;;;;;;;47.27;32.27;;;-2.50;99.90;;;;;;5096594;28;20177;-63
2024/01/18 08:45:56;;;;;;;46.77;32.00;;;-2.60;99.90;;;;;;5094724;28;20177;-63
2024/01/18 08:48:21;;;;;;;49.27;32.03;;;-2.60;99.90;;;;;;5095873;28;20212;-63
2024/01/18 08:50:47;;;;;;;51.23;32.83;;;-2.50;99.90;;;;;;5096031;28;20212;-62
2024/01/18 08:53:13;;;;;;;51.90;31.87;;;-2.60;99.90;;;;;;5095783;28;20693;-62
2024/01/18 08:55:41;;;;;;;47.07;32.20;;;-2.60;99.90;;;;;;5096136;28;20626;-62
2024/01/18 08:58:07;;;;;;;44.40;30.20;;;-2.60;99.90;;;;;;5095969;28;20181;-62
2024/01/18 09:00:33;;;;;;;32.43;25.77;;;-2.60;99.90;;;;;;5095801;28;20572;-62
2024/01/18 09:03:00;;;;;;;35.07;27.60;;;-2.60;99.90;;;;;;5095922;28;20216;-63
2024/01/18 09:05:25;;;;;;;34.87;26.07;;;-2.60;99.90;;;;;;5095690;28;20222;-62
2024/01/18 09:07:51;;;;;;;27.67;24.47;;;-2.50;99.90;;;;;;5095307;28;20708;-62
2024/01/18 09:10:18;;;;;;;35.27;25.50;;;-2.50;99.90;;;;;;5095894;28;20645;-62
2024/01/18 09:12:45;;;;;;;38.53;28.73;;;-2.50;99.90;;;;;;5094198;28;20177;-62
2024/01/18 09:15:11;;;;;;;43.87;31.63;;;-2.30;99.90;;;;;;5096267;28;20198;-63
2024/01/18 09:17:37;;;;;;;42.00;32.63;;;-2.20;99.90;;;;;;5095356;28;20271;-63
2024/01/18 09:20:04;;;;;;;40.43;31.73;;;-2.00;99.90;;;;;;5095536;28;20346;-63
2024/01/18 09:22:29;;;;;;;43.17;30.73;;;-2.00;99.90;;;;;;5095018;28;20169;-62
2024/01/18 09:24:55;;;;;;;38.57;30.83;;;-1.90;99.90;;;;;;5095525;28;20577;-63
2024/01/18 09:27:22;;;;;;;50.40;33.57;;;-1.90;99.90;;;;;;5095188;28;20673;-62
2024/01/18 09:29:48;;;;;;;47.57;36.33;;;-1.90;99.90;;;;;;5095117;28;20175;-61
2024/01/18 09:32:15;;;;;;;49.40;37.17;;;-1.80;99.90;;;;;;5093894;28;20177;-62
2024/01/18 09:34:41;;;;;;;47.63;35.33;;;-1.80;99.90;;;;;;5095180;28;20548;-62
2024/01/18 09:37:07;;;;;;;49.20;35.43;;;-1.70;99.90;;;;;;5094855;28;20547;-62
2024/01/18 09:39:32;;;;;;;48.80;34.83;;;-1.70;99.90;;;;;;5094441;28;20199;-62
2024/01/18 09:42:01;;;;;;;50.27;35.13;;;-1.70;99.90;;;;;;5095205;28;20260;-63
2024/01/18 09:44:31;;;;;;;50.30;33.97;;;-1.70;99.90;;;;;;5094842;28;20177;-63
2024/01/18 09:46:58;;;;;;;47.40;33.57;;;-1.70;99.90;;;;;;5094535;28;20272;-62
2024/01/18 09:49:25;;;;;;;47.23;36.37;;;-1.70;99.90;;;;;;5095022;28;20353;-62
2024/01/18 09:51:51;;;;;;;46.60;36.17;;;-1.60;99.90;;;;;;5094343;28;20257;-61
2024/01/18 09:54:17;;;;;;;55.63;39.40;;;-1.60;99.90;;;;;;5094654;28;20177;-62
2024/01/18 09:56:45;;;;;;;54.83;38.67;;;-1.60;99.90;;;;;;5094504;28;20228;-62
2024/01/18 09:59:17;;;;;;;63.10;40.70;;;-1.50;99.90;;;;;;5094494;28;20251;-62
2024/01/18 10:01:44;;;;;;;51.17;39.13;;;-1.40;99.90;;;;;;5094456;28;20184;-63
2024/01/18 10:04:12;;;;;;;59.73;39.83;;;-1.20;99.90;;;;;;5094408;28;20695;-63
2024/01/18 10:06:38;;;;;;;68.33;43.60;;;-1.10;99.90;;;;;;5094023;28;20249;-61
2024/01/18 10:09:11;;;;;;;54.37;40.27;;;-1.00;99.90;;;;;;5094410;28;20182;-62
2024/01/18 10:11:37;;;;;;;58.77;39.70;;;-0.90;99.90;;;;;;5094329;28;20219;-62
2024/01/18 10:14:04;;;;;;;63.03;42.87;;;-0.70;99.90;;;;;;5092979;28;20646;-62
2024/01/18 10:16:37;;;;;;;61.53;41.67;;;-0.60;99.90;;;;;;5094463;28;20240;-62
2024/01/18 10:19:05;;;;;;;62.60;40.00;;;-0.50;99.90;;;;;;5094424;28;20557;-62
2024/01/18 10:21:34;;;;;;;60.57;41.30;;;-0.40;99.90;;;;;;5094243;28;20227;-62
2024/01/18 10:24:02;;;;;;;55.07;37.93;;;-0.20;99.90;;;;;;5093947;28;20174;-62
2024/01/18 10:26:29;;;;;;;58.07;40.67;;;-0.20;99.90;;;;;;5094336;28;20169;-62
2024/01/18 10:28:56;;;;;;;56.43;39.50;;;0.00;99.90;;;;;;5094447;28;20626;-62
2024/01/18 10:31:22;;;;;;;54.50;38.33;;;0.10;99.90;;;;;;5094100;28;20215;-61
2024/01/18 10:33:48;;;;;;;47.53;36.70;;;0.10;99.90;;;;;;5092821;28;20192;-61
2024/01/18 10:36:14;;;;;;;49.43;36.73;;;0.10;99.90;;;;;;5094118;28;20173;-61
2024/01/18 10:38:41;;;;;;;52.73;36.30;;;0.00;99.90;;;;;;5093601;28;20197;-61
2024/01/18 10:41:11;;;;;;;54.03;35.63;;;0.10;99.90;;;;;;5094180;28;20537;-61
2024/01/18 10:43:39;;;;;;;48.37;33.87;;;0.10;99.90;;;;;;5093899;28;20248;-61
2024/01/18 10:46:05;;;;;;;51.67;35.90;;;0.00;99.90;;;;;;5093883;28;20162;-61
2024/01/18 10:48:32;;;;;;;50.63;35.20;;;0.00;99.90;;;;;;5093644;28;20188;-62
2024/01/18 10:50:59;;;;;;;50.03;34.27;;;0.00;99.90;;;;;;5093553;28;20230;-62
2024/01/18 10:53:26;;;;;;;47.97;35.83;;;0.10;99.90;;;;;;5093429;28;20210;-62
2024/01/18 10:55:52;;;;;;;53.00;37.20;;;0.20;99.90;;;;;;5093601;28;20235;-62
2024/01/18 10:58:21;;;;;;;49.40;34.50;;;0.20;99.90;;;;;;5093162;28;20284;-61
2024/01/18 11:00:47;;;;;;;53.60;35.97;;;0.30;99.90;;;;;;5092876;28;20219;-62
2024/01/18 11:03:17;;;;;;;47.37;35.00;;;0.30;99.90;;;;;;5093422;28;20188;-62
2024/01/18 11:05:45;;;;;;;50.23;34.83;;;0.30;99.90;;;;;;5093449;28;20642;-62
2024/01/18 11:08:15;;;;;;;52.10;35.43;;;0.50;99.90;;;;;;5093173;28;20223;-62
2024/01/18 11:10:42;;;;;;;52.93;38.17;;;0.60;99.90;;;;;;5093385;28;20181;-62
2024/01/18 11:13:09;;;;;;;50.97;36.07;;;0.80;99.90;;;;;;5092073;28;20181;-63
2024/01/18 11:15:37;;;;;;;47.83;35.17;;;1.00;99.90;;;;;;5093326;28;20252;-61
2024/01/18 11:18:14;;;;;;;48.33;34.50;;;1.00;99.90;;;;;;5093223;28;20725;-62
2024/01/18 11:20:58;;;;;;;50.90;35.20;;;1.10;99.90;;;;;;5093180;28;20291;-62
2024/01/18 11:23:27;;;;;;;44.03;31.33;;;1.10;99.90;;;;;;5092983;28;20532;-62
2024/01/18 11:25:53;;;;;;;42.13;30.97;;;1.30;99.90;;;;;;5093447;28;20177;-62
2024/01/18 11:28:23;;;;;;;40.57;30.07;;;1.50;99.90;;;;;;5093338;28;20558;-61
2024/01/18 11:30:48;;;;;;;42.23;29.27;;;1.50;36.50;;;;;;5093114;28;20204;-61
2024/01/18 11:33:14;;;;;;;40.10;30.10;;;1.40;31.90;;;;;;5093376;28;20618;-62
2024/01/18 11:35:41;;;;;;;39.60;29.37;;;1.60;99.00;;;;;;5093126;28;20221;-62
2024/01/18 11:38:24;;;;;;;38.57;31.07;;;1.80;98.50;;;;;;5092965;28;20205;-62
2024/01/18 11:41:07;;;;;;;38.53;28.73;;;2.10;26.40;;;;;;5093330;28;20185;-62
2024/01/18 11:43:55;;;;;;;35.90;27.90;;;2.20;1.00;;;;;;5093351;28;20149;-62
2024/01/18 11:46:34;;;;;;;34.77;26.90;;;2.20;1.00;;;;;;5092962;28;20634;-62
2024/01/18 11:49:00;;;;;;;39.20;27.37;;;2.40;1.00;;;;;;5093180;28;20591;-62
2024/01/18 11:51:27;;;;;;;28.17;21.07;;;2.50;1.00;;;;;;5092956;28;20192;-62
2024/01/18 11:53:54;;;;;;;24.30;19.87;;;2.40;1.00;;;;;;5092935;28;20235;-62
2024/01/18 11:56:23;;;;;;;25.23;19.80;;;2.60;1.00;;;;;;5091742;28;20196;-61
2024/01/18 11:58:52;;;;;;;22.53;19.27;;;2.60;1.00;;;;;;5092796;28;20685;-63
2024/01/18 12:01:21;;;;;;;25.03;19.33;;;2.60;1.00;;;;;;5092903;28;20177;-63
2024/01/18 12:03:47;;;;;;;22.57;19.63;;;2.70;1.00;;;;;;5092898;28;20647;-62
2024/01/18 12:06:14;;;;;;;22.53;18.20;;;2.80;1.00;;;;;;5093119;28;20224;-62
2024/01/18 12:08:41;;;;;;;23.03;19.13;;;2.80;1.00;;;;;;5092488;28;20194;-62
2024/01/18 12:11:08;;;;;;;21.17;17.40;;;2.90;1.00;;;;;;5094703;28;20218;-62
2024/01/18 12:13:34;;;;;;;21.77;17.00;;;2.90;1.00;;;;;;5096980;28;20154;-62
2024/01/18 12:16:00;;;;;;;22.73;17.53;;;3.10;1.00;;;;;;5096646;28;20325;-62
2024/01/18 12:18:25;;;;;;;22.13;17.83;;;3.10;1.00;;;;;;5096631;28;20601;-62
2024/01/18 12:20:51;;;;;;;22.67;17.17;;;3.10;1.00;;;;;;5096459;28;20208;-62
2024/01/18 12:23:17;;;;;;;22.23;16.57;;;3.20;1.00;;;;;;5096640;28;20173;-61
2024/01/18 12:25:44;;;;;;;21.97;16.60;;;3.10;1.00;;;;;;5096448;28;20205;-62